sensor_id;sensor_type;location;lat;lon;timestamp;P1;durP1;ratioP1;P2;durP2;ratioP2
1999;SDS011;1001;48.87406500;9.59633600;2023-02-21T00:01:29;2.80;;;2.30;;
1999;SDS011;1001;48.87406500;9.59633600;2023-02-21T00:04:13;2.77;;;2.13;;
1999;SDS011;1001;48.87406500;9.59633600;2023-02-21T00:06:56;5.13;;;2.87;;
1999;SDS011;1001;48.87406500;9.59633600;2023-02-21T00:09:40;3.07;;;2.60;;
1999;SDS011;1001;48.87406500;9.59633600;2023-02-21T00:12:24;4.73;;;2.00;;
1999;SDS011;1001;48.87406500;9.59633600;2023-02-21T00:15:10;6.00;;;2.20;;
1999;SDS011;1001;48.87406500;9.59633600;2023-02-21T00:17:54;3.83;;;2.17;;
1999;SDS011;1001;48.87406500;9.59633600;2023-02-21T00:20:38;3.17;;;2.10;;
1999;SDS011;1001;48.87406500;9.59633600;2023-02-21T00:23:22;2.60;;;1.97;;
1999;SDS011;1001;48.87406500;9.59633600;2023-02-21T00:26:06;5.13;;;2.57;;
1999;SDS011;1001;48.87406500;9.59633600;2023-02-21T00:28:49;7.10;;;2.20;;
1999;SDS011;1001;48.87406500;9.59633600;2023-02-21T00:31:35;7.80;;;2.57;;
1999;SDS011;1001;48.87406500;9.59633600;2023-02-21T00:34:18;6.10;;;2.27;;
1999;SDS011;1001;48.87406500;9.59633600;2023-02-21T00:37:02;3.60;;;1.93;;
1999;SDS011;1001;48.87406500;9.59633600;2023-02-21T00:39:46;4.60;;;1.90;;
1999;SDS011;1001;48.87406500;9.59633600;2023-02-21T00:42:30;2.83;;;1.90;;
1999;SDS011;1001;48.87406500;9.59633600;2023-02-21T00:45:14;5.43;;;1.90;;
1999;SDS011;1001;48.87406500;9.59633600;2023-02-21T00:48:00;5.43;;;2.33;;
1999;SDS011;1001;48.87406500;9.59633600;2023-02-21T00:50:44;2.60;;;2.20;;
1999;SDS011;1001;48.87406500;9.59633600;2023-02-21T00:53:28;4.53;;;1.97;;
1999;SDS011;1001;48.87406500;9.59633600;2023-02-21T00:56:12;3.30;;;2.10;;
1999;SDS011;1001;48.87406500;9.59633600;2023-02-21T00:58:56;3.10;;;2.00;;
1999;SDS011;1001;48.87406500;9.59633600;2023-02-21T01:01:40;3.67;;;2.20;;
1999;SDS011;1001;48.87406500;9.59633600;2023-02-21T01:04:25;5.47;;;2.20;;
1999;SDS011;1001;48.87406500;9.59633600;2023-02-21T01:07:09;3.77;;;2.70;;
1999;SDS011;1001;48.87406500;9.59633600;2023-02-21T01:09:53;5.57;;;2.07;;
1999;SDS011;1001;48.87406500;9.59633600;2023-02-21T01:12:36;4.23;;;2.47;;
1999;SDS011;1001;48.87406500;9.59633600;2023-02-21T01:15:20;6.93;;;2.00;;
1999;SDS011;1001;48.87406500;9.59633600;2023-02-21T01:18:04;2.93;;;1.73;;
1999;SDS011;1001;48.87406500;9.59633600;2023-02-21T01:20:50;4.20;;;2.03;;
1999;SDS011;1001;48.87406500;9.59633600;2023-02-21T01:23:34;1.90;;;1.60;;
1999;SDS011;1001;48.87406500;9.59633600;2023-02-21T01:26:18;2.33;;;1.83;;
1999;SDS011;1001;48.87406500;9.59633600;2023-02-21T01:29:01;2.30;;;2.00;;
1999;SDS011;1001;48.87406500;9.59633600;2023-02-21T01:31:47;2.90;;;1.73;;
1999;SDS011;1001;48.87406500;9.59633600;2023-02-21T01:34:31;3.80;;;2.17;;
1999;SDS011;1001;48.87406500;9.59633600;2023-02-21T01:37:17;7.20;;;2.47;;
1999;SDS011;1001;48.87406500;9.59633600;2023-02-21T01:40:00;4.57;;;2.17;;
1999;SDS011;1001;48.87406500;9.59633600;2023-02-21T01:42:44;2.10;;;1.90;;
1999;SDS011;1001;48.87406500;9.59633600;2023-02-21T01:45:40;2.80;;;2.27;;
1999;SDS011;1001;48.87406500;9.59633600;2023-02-21T01:48:28;2.63;;;2.20;;
1999;SDS011;1001;48.87406500;9.59633600;2023-02-21T01:51:14;3.53;;;1.80;;
1999;SDS011;1001;48.87406500;9.59633600;2023-02-21T01:54:03;1.73;;;1.50;;
1999;SDS011;1001;48.87406500;9.59633600;2023-02-21T01:56:48;4.27;;;1.90;;
1999;SDS011;1001;48.87406500;9.59633600;2023-02-21T01:59:32;3.37;;;1.77;;
1999;SDS011;1001;48.87406500;9.59633600;2023-02-21T02:02:17;4.50;;;2.03;;
1999;SDS011;1001;48.87406500;9.59633600;2023-02-21T02:05:04;2.40;;;1.67;;
1999;SDS011;1001;48.87406500;9.59633600;2023-02-21T02:07:50;2.33;;;1.67;;
1999;SDS011;1001;48.87406500;9.59633600;2023-02-21T02:10:37;5.20;;;1.90;;
1999;SDS011;1001;48.87406500;9.59633600;2023-02-21T02:16:29;1.63;;;1.27;;
1999;SDS011;1001;48.87406500;9.59633600;2023-02-21T02:22:17;2.40;;;1.80;;
1999;SDS011;1001;48.87406500;9.59633600;2023-02-21T02:25:12;2.50;;;1.40;;
1999;SDS011;1001;48.87406500;9.59633600;2023-02-21T02:31:05;1.47;;;1.33;;
1999;SDS011;1001;48.87406500;9.59633600;2023-02-21T02:36:52;3.40;;;1.60;;
1999;SDS011;1001;48.87406500;9.59633600;2023-02-21T02:39:27;2.20;;;2.00;;
1999;SDS011;1001;48.87406500;9.59633600;2023-02-21T02:42:01;2.90;;;1.50;;
1999;SDS011;1001;48.87406500;9.59633600;2023-02-21T02:44:37;2.87;;;1.30;;
1999;SDS011;1001;48.87406500;9.59633600;2023-02-21T02:47:06;2.80;;;1.97;;
1999;SDS011;1001;48.87406500;9.59633600;2023-02-21T02:49:37;4.30;;;2.00;;
1999;SDS011;1001;48.87406500;9.59633600;2023-02-21T02:52:08;3.30;;;2.17;;
1999;SDS011;1001;48.87406500;9.59633600;2023-02-21T02:54:35;5.70;;;1.60;;
1999;SDS011;1001;48.87406500;9.59633600;2023-02-21T02:57:03;3.60;;;1.50;;
1999;SDS011;1001;48.87406500;9.59633600;2023-02-21T02:59:34;3.30;;;2.17;;
1999;SDS011;1001;48.87406500;9.59633600;2023-02-21T03:02:07;4.20;;;1.87;;
1999;SDS011;1001;48.87406500;9.59633600;2023-02-21T03:05:01;6.10;;;2.53;;
1999;SDS011;1001;48.87406500;9.59633600;2023-02-21T03:07:44;7.60;;;1.60;;
1999;SDS011;1001;48.87406500;9.59633600;2023-02-21T03:10:20;1.80;;;1.47;;
1999;SDS011;1001;48.87406500;9.59633600;2023-02-21T03:12:54;4.10;;;1.50;;
1999;SDS011;1001;48.87406500;9.59633600;2023-02-21T03:15:31;2.63;;;1.63;;
1999;SDS011;1001;48.87406500;9.59633600;2023-02-21T03:18:02;2.10;;;1.67;;
1999;SDS011;1001;48.87406500;9.59633600;2023-02-21T03:20:36;6.23;;;1.93;;
1999;SDS011;1001;48.87406500;9.59633600;2023-02-21T03:23:04;3.03;;;1.73;;
1999;SDS011;1001;48.87406500;9.59633600;2023-02-21T03:25:33;3.30;;;1.80;;
1999;SDS011;1001;48.87406500;9.59633600;2023-02-21T03:28:01;3.97;;;1.67;;
1999;SDS011;1001;48.87406500;9.59633600;2023-02-21T03:30:28;2.80;;;1.43;;
1999;SDS011;1001;48.87406500;9.59633600;2023-02-21T03:32:55;2.13;;;1.37;;
1999;SDS011;1001;48.87406500;9.59633600;2023-02-21T03:35:22;3.00;;;1.90;;
1999;SDS011;1001;48.87406500;9.59633600;2023-02-21T03:37:51;3.30;;;1.70;;
1999;SDS011;1001;48.87406500;9.59633600;2023-02-21T03:40:19;7.20;;;2.43;;
1999;SDS011;1001;48.87406500;9.59633600;2023-02-21T03:42:48;5.50;;;1.93;;
1999;SDS011;1001;48.87406500;9.59633600;2023-02-21T03:45:15;3.43;;;1.90;;
1999;SDS011;1001;48.87406500;9.59633600;2023-02-21T03:47:42;4.83;;;2.23;;
1999;SDS011;1001;48.87406500;9.59633600;2023-02-21T03:50:09;3.37;;;1.83;;
1999;SDS011;1001;48.87406500;9.59633600;2023-02-21T03:52:36;3.50;;;2.00;;
1999;SDS011;1001;48.87406500;9.59633600;2023-02-21T03:55:04;3.50;;;1.50;;
1999;SDS011;1001;48.87406500;9.59633600;2023-02-21T03:57:32;4.93;;;1.27;;
1999;SDS011;1001;48.87406500;9.59633600;2023-02-21T03:59:59;6.80;;;1.90;;
1999;SDS011;1001;48.87406500;9.59633600;2023-02-21T04:02:26;3.77;;;1.70;;
1999;SDS011;1001;48.87406500;9.59633600;2023-02-21T04:04:52;2.33;;;1.80;;
1999;SDS011;1001;48.87406500;9.59633600;2023-02-21T04:07:19;4.17;;;2.10;;
1999;SDS011;1001;48.87406500;9.59633600;2023-02-21T04:09:46;2.47;;;1.40;;
1999;SDS011;1001;48.87406500;9.59633600;2023-02-21T04:12:15;1.90;;;1.60;;
1999;SDS011;1001;48.87406500;9.59633600;2023-02-21T04:14:41;4.23;;;1.60;;
1999;SDS011;1001;48.87406500;9.59633600;2023-02-21T04:17:08;8.43;;;2.03;;
1999;SDS011;1001;48.87406500;9.59633600;2023-02-21T04:19:35;5.87;;;2.30;;
1999;SDS011;1001;48.87406500;9.59633600;2023-02-21T04:22:01;4.10;;;2.10;;
1999;SDS011;1001;48.87406500;9.59633600;2023-02-21T04:24:28;4.97;;;2.13;;
1999;SDS011;1001;48.87406500;9.59633600;2023-02-21T04:26:54;2.57;;;1.77;;
1999;SDS011;1001;48.87406500;9.59633600;2023-02-21T04:29:23;4.60;;;1.90;;
1999;SDS011;1001;48.87406500;9.59633600;2023-02-21T04:31:50;2.17;;;1.60;;
1999;SDS011;1001;48.87406500;9.59633600;2023-02-21T04:34:17;1.97;;;1.60;;
1999;SDS011;1001;48.87406500;9.59633600;2023-02-21T04:36:44;3.67;;;2.07;;
1999;SDS011;1001;48.87406500;9.59633600;2023-02-21T04:39:10;1.90;;;1.70;;
1999;SDS011;1001;48.87406500;9.59633600;2023-02-21T04:41:37;2.47;;;1.73;;
1999;SDS011;1001;48.87406500;9.59633600;2023-02-21T04:44:04;4.53;;;2.10;;
1999;SDS011;1001;48.87406500;9.59633600;2023-02-21T04:46:32;3.57;;;1.60;;
1999;SDS011;1001;48.87406500;9.59633600;2023-02-21T04:48:59;4.10;;;2.17;;
1999;SDS011;1001;48.87406500;9.59633600;2023-02-21T04:51:26;3.83;;;2.17;;
1999;SDS011;1001;48.87406500;9.59633600;2023-02-21T04:53:52;4.10;;;1.50;;
1999;SDS011;1001;48.87406500;9.59633600;2023-02-21T04:56:20;2.20;;;2.00;;
1999;SDS011;1001;48.87406500;9.59633600;2023-02-21T04:58:48;3.13;;;1.60;;
1999;SDS011;1001;48.87406500;9.59633600;2023-02-21T05:01:16;5.67;;;1.90;;
1999;SDS011;1001;48.87406500;9.59633600;2023-02-21T05:03:46;2.83;;;1.43;;
1999;SDS011;1001;48.87406500;9.59633600;2023-02-21T05:06:16;2.47;;;1.80;;
1999;SDS011;1001;48.87406500;9.59633600;2023-02-21T05:08:43;3.00;;;1.70;;
1999;SDS011;1001;48.87406500;9.59633600;2023-02-21T05:11:10;3.70;;;2.00;;
1999;SDS011;1001;48.87406500;9.59633600;2023-02-21T05:13:36;2.80;;;1.90;;
1999;SDS011;1001;48.87406500;9.59633600;2023-02-21T05:16:03;4.67;;;1.73;;
1999;SDS011;1001;48.87406500;9.59633600;2023-02-21T05:18:30;1.93;;;1.50;;
1999;SDS011;1001;48.87406500;9.59633600;2023-02-21T05:20:59;7.97;;;2.57;;
1999;SDS011;1001;48.87406500;9.59633600;2023-02-21T05:23:26;2.90;;;1.97;;
1999;SDS011;1001;48.87406500;9.59633600;2023-02-21T05:25:59;11.00;;;2.87;;
1999;SDS011;1001;48.87406500;9.59633600;2023-02-21T05:28:25;3.00;;;2.13;;
1999;SDS011;1001;48.87406500;9.59633600;2023-02-21T05:30:52;6.00;;;3.23;;
1999;SDS011;1001;48.87406500;9.59633600;2023-02-21T05:33:19;2.77;;;1.90;;
1999;SDS011;1001;48.87406500;9.59633600;2023-02-21T05:35:45;2.47;;;2.27;;
1999;SDS011;1001;48.87406500;9.59633600;2023-02-21T05:38:14;3.57;;;2.27;;
1999;SDS011;1001;48.87406500;9.59633600;2023-02-21T05:40:40;4.83;;;2.13;;
1999;SDS011;1001;48.87406500;9.59633600;2023-02-21T05:43:07;3.00;;;2.10;;
1999;SDS011;1001;48.87406500;9.59633600;2023-02-21T05:45:33;5.50;;;2.73;;
1999;SDS011;1001;48.87406500;9.59633600;2023-02-21T05:48:00;5.60;;;2.57;;
1999;SDS011;1001;48.87406500;9.59633600;2023-02-21T05:50:27;4.83;;;2.37;;
1999;SDS011;1001;48.87406500;9.59633600;2023-02-21T05:52:54;2.13;;;1.70;;
1999;SDS011;1001;48.87406500;9.59633600;2023-02-21T05:55:23;5.60;;;2.03;;
1999;SDS011;1001;48.87406500;9.59633600;2023-02-21T05:57:49;3.20;;;1.90;;
1999;SDS011;1001;48.87406500;9.59633600;2023-02-21T06:00:17;1.50;;;1.30;;
1999;SDS011;1001;48.87406500;9.59633600;2023-02-21T06:02:48;5.03;;;1.90;;
1999;SDS011;1001;48.87406500;9.59633600;2023-02-21T06:05:15;5.70;;;2.23;;
1999;SDS011;1001;48.87406500;9.59633600;2023-02-21T06:07:41;2.93;;;1.50;;
1999;SDS011;1001;48.87406500;9.59633600;2023-02-21T06:10:08;3.67;;;1.70;;
1999;SDS011;1001;48.87406500;9.59633600;2023-02-21T06:12:36;3.27;;;1.40;;
1999;SDS011;1001;48.87406500;9.59633600;2023-02-21T06:15:03;4.40;;;2.37;;
1999;SDS011;1001;48.87406500;9.59633600;2023-02-21T06:17:31;3.17;;;1.70;;
1999;SDS011;1001;48.87406500;9.59633600;2023-02-21T06:19:58;6.03;;;1.80;;
1999;SDS011;1001;48.87406500;9.59633600;2023-02-21T06:22:24;3.00;;;1.90;;
1999;SDS011;1001;48.87406500;9.59633600;2023-02-21T06:24:51;3.00;;;1.73;;
1999;SDS011;1001;48.87406500;9.59633600;2023-02-21T06:27:17;2.33;;;1.77;;
1999;SDS011;1001;48.87406500;9.59633600;2023-02-21T06:29:45;3.90;;;2.37;;
1999;SDS011;1001;48.87406500;9.59633600;2023-02-21T06:32:12;6.03;;;1.87;;
1999;SDS011;1001;48.87406500;9.59633600;2023-02-21T06:34:39;3.60;;;2.13;;
1999;SDS011;1001;48.87406500;9.59633600;2023-02-21T06:37:05;1.83;;;1.33;;
1999;SDS011;1001;48.87406500;9.59633600;2023-02-21T06:39:32;3.40;;;1.87;;
1999;SDS011;1001;48.87406500;9.59633600;2023-02-21T06:41:58;1.90;;;1.63;;
1999;SDS011;1001;48.87406500;9.59633600;2023-02-21T06:44:25;2.10;;;1.50;;
1999;SDS011;1001;48.87406500;9.59633600;2023-02-21T06:46:53;2.60;;;1.57;;
1999;SDS011;1001;48.87406500;9.59633600;2023-02-21T06:49:19;4.87;;;1.73;;
1999;SDS011;1001;48.87406500;9.59633600;2023-02-21T06:51:46;2.10;;;1.60;;
1999;SDS011;1001;48.87406500;9.59633600;2023-02-21T06:54:13;4.20;;;2.20;;
1999;SDS011;1001;48.87406500;9.59633600;2023-02-21T06:56:41;4.53;;;2.20;;
1999;SDS011;1001;48.87406500;9.59633600;2023-02-21T06:59:08;4.30;;;1.90;;
1999;SDS011;1001;48.87406500;9.59633600;2023-02-21T07:01:35;3.60;;;1.93;;
1999;SDS011;1001;48.87406500;9.59633600;2023-02-21T07:04:03;2.50;;;1.60;;
1999;SDS011;1001;48.87406500;9.59633600;2023-02-21T07:06:29;3.60;;;2.40;;
1999;SDS011;1001;48.87406500;9.59633600;2023-02-21T07:08:57;4.43;;;1.83;;
1999;SDS011;1001;48.87406500;9.59633600;2023-02-21T07:11:24;3.97;;;1.80;;
1999;SDS011;1001;48.87406500;9.59633600;2023-02-21T07:13:50;1.90;;;1.53;;
1999;SDS011;1001;48.87406500;9.59633600;2023-02-21T07:16:18;3.17;;;2.13;;
1999;SDS011;1001;48.87406500;9.59633600;2023-02-21T07:18:45;2.70;;;2.00;;
1999;SDS011;1001;48.87406500;9.59633600;2023-02-21T07:21:13;2.20;;;2.00;;
1999;SDS011;1001;48.87406500;9.59633600;2023-02-21T07:23:41;3.77;;;1.97;;
1999;SDS011;1001;48.87406500;9.59633600;2023-02-21T07:26:08;4.00;;;2.13;;
1999;SDS011;1001;48.87406500;9.59633600;2023-02-21T07:28:34;2.03;;;1.83;;
1999;SDS011;1001;48.87406500;9.59633600;2023-02-21T07:31:01;6.07;;;2.57;;
1999;SDS011;1001;48.87406500;9.59633600;2023-02-21T07:33:28;3.70;;;2.20;;
1999;SDS011;1001;48.87406500;9.59633600;2023-02-21T07:35:54;2.80;;;2.03;;
1999;SDS011;1001;48.87406500;9.59633600;2023-02-21T07:38:23;4.00;;;2.60;;
1999;SDS011;1001;48.87406500;9.59633600;2023-02-21T07:40:53;9.10;;;3.07;;
1999;SDS011;1001;48.87406500;9.59633600;2023-02-21T07:43:20;3.83;;;2.00;;
1999;SDS011;1001;48.87406500;9.59633600;2023-02-21T07:45:46;4.70;;;2.60;;
1999;SDS011;1001;48.87406500;9.59633600;2023-02-21T07:48:13;4.63;;;2.40;;
1999;SDS011;1001;48.87406500;9.59633600;2023-02-21T07:50:40;4.53;;;2.50;;
1999;SDS011;1001;48.87406500;9.59633600;2023-02-21T07:53:06;7.87;;;3.93;;
1999;SDS011;1001;48.87406500;9.59633600;2023-02-21T07:55:35;5.83;;;3.10;;
1999;SDS011;1001;48.87406500;9.59633600;2023-02-21T07:58:01;3.97;;;3.00;;
1999;SDS011;1001;48.87406500;9.59633600;2023-02-21T08:00:28;5.43;;;3.13;;
1999;SDS011;1001;48.87406500;9.59633600;2023-02-21T08:02:55;3.93;;;2.97;;
1999;SDS011;1001;48.87406500;9.59633600;2023-02-21T08:05:22;9.53;;;3.60;;
1999;SDS011;1001;48.87406500;9.59633600;2023-02-21T08:07:49;7.00;;;3.23;;
1999;SDS011;1001;48.87406500;9.59633600;2023-02-21T08:10:18;4.67;;;2.67;;
1999;SDS011;1001;48.87406500;9.59633600;2023-02-21T08:12:48;6.03;;;3.43;;
1999;SDS011;1001;48.87406500;9.59633600;2023-02-21T08:15:15;3.73;;;2.90;;
1999;SDS011;1001;48.87406500;9.59633600;2023-02-21T08:17:42;3.07;;;2.37;;
1999;SDS011;1001;48.87406500;9.59633600;2023-02-21T08:20:09;3.27;;;2.40;;
1999;SDS011;1001;48.87406500;9.59633600;2023-02-21T08:22:36;3.27;;;2.90;;
1999;SDS011;1001;48.87406500;9.59633600;2023-02-21T08:25:03;4.30;;;3.07;;
1999;SDS011;1001;48.87406500;9.59633600;2023-02-21T08:27:30;5.23;;;3.50;;
1999;SDS011;1001;48.87406500;9.59633600;2023-02-21T08:29:58;4.10;;;3.00;;
1999;SDS011;1001;48.87406500;9.59633600;2023-02-21T08:32:24;5.13;;;2.90;;
1999;SDS011;1001;48.87406500;9.59633600;2023-02-21T08:34:51;7.80;;;3.70;;
1999;SDS011;1001;48.87406500;9.59633600;2023-02-21T08:37:18;4.03;;;2.80;;
1999;SDS011;1001;48.87406500;9.59633600;2023-02-21T08:39:45;4.50;;;3.50;;
1999;SDS011;1001;48.87406500;9.59633600;2023-02-21T08:42:12;4.30;;;3.00;;
1999;SDS011;1001;48.87406500;9.59633600;2023-02-21T08:44:41;3.90;;;3.30;;
1999;SDS011;1001;48.87406500;9.59633600;2023-02-21T08:47:10;4.73;;;3.50;;
1999;SDS011;1001;48.87406500;9.59633600;2023-02-21T08:49:36;5.83;;;3.57;;
1999;SDS011;1001;48.87406500;9.59633600;2023-02-21T08:52:05;4.00;;;3.60;;
1999;SDS011;1001;48.87406500;9.59633600;2023-02-21T08:54:32;5.70;;;3.50;;
1999;SDS011;1001;48.87406500;9.59633600;2023-02-21T08:56:58;6.13;;;3.63;;
1999;SDS011;1001;48.87406500;9.59633600;2023-02-21T08:59:25;4.67;;;4.17;;
1999;SDS011;1001;48.87406500;9.59633600;2023-02-21T09:01:54;6.00;;;3.00;;
1999;SDS011;1001;48.87406500;9.59633600;2023-02-21T09:04:22;6.27;;;3.23;;
1999;SDS011;1001;48.87406500;9.59633600;2023-02-21T09:06:49;4.77;;;3.00;;
1999;SDS011;1001;48.87406500;9.59633600;2023-02-21T09:09:16;8.73;;;3.67;;
1999;SDS011;1001;48.87406500;9.59633600;2023-02-21T09:11:43;4.63;;;3.27;;
1999;SDS011;1001;48.87406500;9.59633600;2023-02-21T09:14:12;5.97;;;4.27;;
1999;SDS011;1001;48.87406500;9.59633600;2023-02-21T09:16:39;8.67;;;4.10;;
1999;SDS011;1001;48.87406500;9.59633600;2023-02-21T09:19:06;5.10;;;3.13;;
1999;SDS011;1001;48.87406500;9.59633600;2023-02-21T09:21:35;5.37;;;3.33;;
1999;SDS011;1001;48.87406500;9.59633600;2023-02-21T09:24:09;5.63;;;3.17;;
1999;SDS011;1001;48.87406500;9.59633600;2023-02-21T09:26:36;6.47;;;3.80;;
1999;SDS011;1001;48.87406500;9.59633600;2023-02-21T09:29:02;7.93;;;3.60;;
1999;SDS011;1001;48.87406500;9.59633600;2023-02-21T09:31:29;5.63;;;3.43;;
1999;SDS011;1001;48.87406500;9.59633600;2023-02-21T09:33:56;7.60;;;3.30;;
1999;SDS011;1001;48.87406500;9.59633600;2023-02-21T09:36:22;5.57;;;4.00;;
1999;SDS011;1001;48.87406500;9.59633600;2023-02-21T09:38:50;6.83;;;4.10;;
1999;SDS011;1001;48.87406500;9.59633600;2023-02-21T09:41:17;4.50;;;3.60;;
1999;SDS011;1001;48.87406500;9.59633600;2023-02-21T09:43:45;8.17;;;3.63;;
1999;SDS011;1001;48.87406500;9.59633600;2023-02-21T09:46:15;4.73;;;3.37;;
1999;SDS011;1001;48.87406500;9.59633600;2023-02-21T09:48:46;5.20;;;3.23;;
1999;SDS011;1001;48.87406500;9.59633600;2023-02-21T09:51:13;4.50;;;3.53;;
1999;SDS011;1001;48.87406500;9.59633600;2023-02-21T09:53:43;7.13;;;3.43;;
1999;SDS011;1001;48.87406500;9.59633600;2023-02-21T09:56:17;6.33;;;3.00;;
1999;SDS011;1001;48.87406500;9.59633600;2023-02-21T09:58:52;13.70;;;4.50;;
1999;SDS011;1001;48.87406500;9.59633600;2023-02-21T10:01:21;7.07;;;4.07;;
1999;SDS011;1001;48.87406500;9.59633600;2023-02-21T10:03:53;9.27;;;4.77;;
1999;SDS011;1001;48.87406500;9.59633600;2023-02-21T10:06:36;7.53;;;3.50;;
1999;SDS011;1001;48.87406500;9.59633600;2023-02-21T10:09:07;6.07;;;3.50;;
1999;SDS011;1001;48.87406500;9.59633600;2023-02-21T10:11:49;5.27;;;3.10;;
1999;SDS011;1001;48.87406500;9.59633600;2023-02-21T10:14:26;9.00;;;3.83;;
1999;SDS011;1001;48.87406500;9.59633600;2023-02-21T10:17:02;5.47;;;3.40;;
1999;SDS011;1001;48.87406500;9.59633600;2023-02-21T10:19:36;4.53;;;2.77;;
1999;SDS011;1001;48.87406500;9.59633600;2023-02-21T10:22:09;5.30;;;3.23;;
1999;SDS011;1001;48.87406500;9.59633600;2023-02-21T10:24:39;3.83;;;2.83;;
1999;SDS011;1001;48.87406500;9.59633600;2023-02-21T10:27:14;4.70;;;3.50;;
1999;SDS011;1001;48.87406500;9.59633600;2023-02-21T10:29:44;5.57;;;3.57;;
1999;SDS011;1001;48.87406500;9.59633600;2023-02-21T10:32:16;7.27;;;3.77;;
1999;SDS011;1001;48.87406500;9.59633600;2023-02-21T10:34:43;5.63;;;3.70;;
1999;SDS011;1001;48.87406500;9.59633600;2023-02-21T10:37:23;6.60;;;4.20;;
1999;SDS011;1001;48.87406500;9.59633600;2023-02-21T10:40:04;5.50;;;3.37;;
1999;SDS011;1001;48.87406500;9.59633600;2023-02-21T10:42:46;5.20;;;3.40;;
1999;SDS011;1001;48.87406500;9.59633600;2023-02-21T10:45:15;6.77;;;3.80;;
1999;SDS011;1001;48.87406500;9.59633600;2023-02-21T10:47:47;6.47;;;3.40;;
1999;SDS011;1001;48.87406500;9.59633600;2023-02-21T10:53:05;5.20;;;3.83;;
1999;SDS011;1001;48.87406500;9.59633600;2023-02-21T10:55:33;4.10;;;3.70;;
1999;SDS011;1001;48.87406500;9.59633600;2023-02-21T10:58:06;6.17;;;3.13;;
1999;SDS011;1001;48.87406500;9.59633600;2023-02-21T11:00:35;6.90;;;2.90;;
1999;SDS011;1001;48.87406500;9.59633600;2023-02-21T11:03:05;4.53;;;2.90;;
1999;SDS011;1001;48.87406500;9.59633600;2023-02-21T11:05:37;4.70;;;3.20;;
1999;SDS011;1001;48.87406500;9.59633600;2023-02-21T11:08:05;8.60;;;3.87;;
1999;SDS011;1001;48.87406500;9.59633600;2023-02-21T11:10:34;5.07;;;2.97;;
1999;SDS011;1001;48.87406500;9.59633600;2023-02-21T11:13:12;4.50;;;2.70;;
1999;SDS011;1001;48.87406500;9.59633600;2023-02-21T11:15:40;5.00;;;3.30;;
1999;SDS011;1001;48.87406500;9.59633600;2023-02-21T11:18:14;4.70;;;2.90;;
1999;SDS011;1001;48.87406500;9.59633600;2023-02-21T11:20:42;5.33;;;3.07;;
1999;SDS011;1001;48.87406500;9.59633600;2023-02-21T11:23:16;6.90;;;2.80;;
1999;SDS011;1001;48.87406500;9.59633600;2023-02-21T11:25:48;4.00;;;3.60;;
1999;SDS011;1001;48.87406500;9.59633600;2023-02-21T11:28:19;4.40;;;2.93;;
1999;SDS011;1001;48.87406500;9.59633600;2023-02-21T11:30:48;5.27;;;3.10;;
1999;SDS011;1001;48.87406500;9.59633600;2023-02-21T11:33:28;5.90;;;3.47;;
1999;SDS011;1001;48.87406500;9.59633600;2023-02-21T11:36:05;5.63;;;3.80;;
1999;SDS011;1001;48.87406500;9.59633600;2023-02-21T11:38:36;5.17;;;2.90;;
1999;SDS011;1001;48.87406500;9.59633600;2023-02-21T11:41:14;6.43;;;3.50;;
1999;SDS011;1001;48.87406500;9.59633600;2023-02-21T11:43:47;5.53;;;3.43;;
1999;SDS011;1001;48.87406500;9.59633600;2023-02-21T11:46:20;3.73;;;2.50;;
1999;SDS011;1001;48.87406500;9.59633600;2023-02-21T11:48:59;2.90;;;2.20;;
1999;SDS011;1001;48.87406500;9.59633600;2023-02-21T11:51:37;3.10;;;2.33;;
1999;SDS011;1001;48.87406500;9.59633600;2023-02-21T11:54:07;4.40;;;2.70;;
1999;SDS011;1001;48.87406500;9.59633600;2023-02-21T11:56:37;5.23;;;2.73;;
1999;SDS011;1001;48.87406500;9.59633600;2023-02-21T11:59:14;3.70;;;2.50;;
1999;SDS011;1001;48.87406500;9.59633600;2023-02-21T12:01:50;3.57;;;2.10;;
1999;SDS011;1001;48.87406500;9.59633600;2023-02-21T12:04:37;6.40;;;2.80;;
1999;SDS011;1001;48.87406500;9.59633600;2023-02-21T12:07:16;3.60;;;1.87;;
1999;SDS011;1001;48.87406500;9.59633600;2023-02-21T12:09:51;3.40;;;2.30;;
1999;SDS011;1001;48.87406500;9.59633600;2023-02-21T12:12:28;6.10;;;2.90;;
1999;SDS011;1001;48.87406500;9.59633600;2023-02-21T12:15:07;2.97;;;1.63;;
1999;SDS011;1001;48.87406500;9.59633600;2023-02-21T12:17:47;4.30;;;1.83;;
1999;SDS011;1001;48.87406500;9.59633600;2023-02-21T12:20:45;4.10;;;1.90;;
1999;SDS011;1001;48.87406500;9.59633600;2023-02-21T12:23:24;3.53;;;2.03;;
1999;SDS011;1001;48.87406500;9.59633600;2023-02-21T12:26:06;2.50;;;1.80;;
1999;SDS011;1001;48.87406500;9.59633600;2023-02-21T12:28:58;2.23;;;1.60;;
1999;SDS011;1001;48.87406500;9.59633600;2023-02-21T12:31:49;2.40;;;1.40;;
1999;SDS011;1001;48.87406500;9.59633600;2023-02-21T12:34:32;1.53;;;1.20;;
1999;SDS011;1001;48.87406500;9.59633600;2023-02-21T12:37:16;3.43;;;1.53;;
1999;SDS011;1001;48.87406500;9.59633600;2023-02-21T12:39:56;1.90;;;1.40;;
1999;SDS011;1001;48.87406500;9.59633600;2023-02-21T12:42:44;1.43;;;1.20;;
1999;SDS011;1001;48.87406500;9.59633600;2023-02-21T12:45:25;1.93;;;1.43;;
1999;SDS011;1001;48.87406500;9.59633600;2023-02-21T12:48:07;2.20;;;1.30;;
1999;SDS011;1001;48.87406500;9.59633600;2023-02-21T12:50:38;4.90;;;1.47;;
1999;SDS011;1001;48.87406500;9.59633600;2023-02-21T12:53:09;1.50;;;1.40;;
1999;SDS011;1001;48.87406500;9.59633600;2023-02-21T12:55:39;7.30;;;1.67;;
1999;SDS011;1001;48.87406500;9.59633600;2023-02-21T12:58:12;2.33;;;1.50;;
1999;SDS011;1001;48.87406500;9.59633600;2023-02-21T13:00:45;2.07;;;1.20;;
1999;SDS011;1001;48.87406500;9.59633600;2023-02-21T13:03:24;3.27;;;1.10;;
1999;SDS011;1001;48.87406500;9.59633600;2023-02-21T13:06:01;2.67;;;1.43;;
1999;SDS011;1001;48.87406500;9.59633600;2023-02-21T13:08:32;3.80;;;1.43;;
1999;SDS011;1001;48.87406500;9.59633600;2023-02-21T13:11:05;3.80;;;1.73;;
1999;SDS011;1001;48.87406500;9.59633600;2023-02-21T13:13:36;5.07;;;1.97;;
1999;SDS011;1001;48.87406500;9.59633600;2023-02-21T13:16:03;2.30;;;1.50;;
1999;SDS011;1001;48.87406500;9.59633600;2023-02-21T13:18:36;2.77;;;1.27;;
1999;SDS011;1001;48.87406500;9.59633600;2023-02-21T13:21:09;1.63;;;1.30;;
1999;SDS011;1001;48.87406500;9.59633600;2023-02-21T13:23:45;1.70;;;1.20;;
1999;SDS011;1001;48.87406500;9.59633600;2023-02-21T13:26:41;3.10;;;1.40;;
1999;SDS011;1001;48.87406500;9.59633600;2023-02-21T13:29:16;7.60;;;1.43;;
1999;SDS011;1001;48.87406500;9.59633600;2023-02-21T13:31:45;2.37;;;1.50;;
1999;SDS011;1001;48.87406500;9.59633600;2023-02-21T13:34:17;1.53;;;1.10;;
1999;SDS011;1001;48.87406500;9.59633600;2023-02-21T13:36:48;2.80;;;1.20;;
1999;SDS011;1001;48.87406500;9.59633600;2023-02-21T13:39:16;1.70;;;0.97;;
1999;SDS011;1001;48.87406500;9.59633600;2023-02-21T13:41:47;3.20;;;1.10;;
1999;SDS011;1001;48.87406500;9.59633600;2023-02-21T13:44:16;5.40;;;1.70;;
1999;SDS011;1001;48.87406500;9.59633600;2023-02-21T13:47:02;1.87;;;1.50;;
1999;SDS011;1001;48.87406500;9.59633600;2023-02-21T13:49:40;2.33;;;1.00;;
1999;SDS011;1001;48.87406500;9.59633600;2023-02-21T14:01:21;3.00;;;1.50;;
1999;SDS011;1001;48.87406500;9.59633600;2023-02-21T14:07:04;1.83;;;1.30;;
1999;SDS011;1001;48.87406500;9.59633600;2023-02-21T14:09:31;3.33;;;1.43;;